Time,TemperatureF,DewpointF,PressureIn,WindDirection,WindDirectionDegrees,WindSpeedMPH,WindSpeedGustMPH,Humidity,HourlyPrecipIn,Conditions,Clouds,dailyrainin,SoftwareType,DateUTC
2013-01-27 00:03:00,17.0,14.0,30.33,SE,136,2.0,2.0,88,0.00,,,0.05,,2013-01-27 05:03:00,
2013-01-27 00:12:00,17.0,14.0,30.33,SE,136,2.0,2.0,88,0.00,,,0.05,,2013-01-27 05:12:00,
2013-01-27 00:22:00,17.0,14.0,30.35,SE,136,2.0,2.0,88,0.00,,,0.05,,2013-01-27 05:22:00,
2013-01-27 00:32:00,17.0,14.0,30.35,SE,136,2.0,2.0,88,0.00,,,0.05,,2013-01-27 05:32:00,
2013-01-27 00:42:00,17.0,14.0,30.35,SE,136,2.0,2.0,88,0.00,,,0.05,,2013-01-27 05:42:00,
2013-01-27 00:52:00,17.0,14.0,30.35,SE,124,3.0,3.0,87,0.00,,,0.05,,2013-01-27 05:52:00,
2013-01-27 01:02:00,17.0,14.0,30.35,SE,124,3.0,3.0,87,0.00,,,0.05,,2013-01-27 06:02:00,
2013-01-27 01:11:00,17.0,14.0,30.35,SE,124,3.0,3.0,87,0.00,,,0.05,,2013-01-27 06:11:00,
2013-01-27 01:21:00,18.0,15.0,30.35,SE,136,2.0,3.0,86,0.00,,,0.05,,2013-01-27 06:21:00,
2013-01-27 01:32:00,18.0,15.0,30.35,SE,136,2.0,3.0,86,0.00,,,0.05,,2013-01-27 06:32:00,
2013-01-27 01:42:00,18.0,15.0,30.35,SE,136,2.0,3.0,86,0.00,,,0.05,,2013-01-27 06:42:00,
2013-01-27 01:52:00,20.0,16.0,30.35,SE,135,1.0,2.0,83,0.00,,,0.05,,2013-01-27 06:52:00,
2013-01-27 02:01:00,20.0,16.0,30.35,SE,135,1.0,2.0,83,0.00,,,0.05,,2013-01-27 07:01:00,
2013-01-27 02:14:00,20.0,16.0,30.35,SE,135,1.0,2.0,83,0.00,,,0.05,,2013-01-27 07:14:00,
2013-01-27 02:21:00,20.0,16.0,30.35,SE,142,3.0,4.0,83,0.00,,,0.05,,2013-01-27 07:21:00,
2013-01-27 02:32:00,20.0,16.0,30.35,SE,142,3.0,4.0,83,0.00,,,0.05,,2013-01-27 07:32:00,
2013-01-27 02:42:00,20.0,16.0,30.35,SE,142,3.0,4.0,83,0.00,,,0.05,,2013-01-27 07:42:00,
2013-01-27 02:52:00,21.0,16.0,30.34,SW,222,2.0,5.0,81,0.00,,,0.05,,2013-01-27 07:52:00,
2013-01-27 03:01:00,21.0,16.0,30.34,SW,222,2.0,5.0,81,0.00,,,0.05,,2013-01-27 08:01:00,
2013-01-27 03:12:00,21.0,16.0,30.34,SW,222,2.0,5.0,81,0.00,,,0.05,,2013-01-27 08:12:00,
2013-01-27 03:22:00,21.0,16.0,30.34,SSE,159,2.0,4.0,81,0.00,,,0.05,,2013-01-27 08:22:00,
2013-01-27 03:32:00,21.0,16.0,30.34,SSE,159,2.0,4.0,81,0.00,,,0.05,,2013-01-27 08:32:00,
2013-01-27 03:42:00,21.0,16.0,30.34,SSE,159,2.0,4.0,81,0.00,,,0.05,,2013-01-27 08:42:00,
2013-01-27 03:52:00,21.0,16.0,30.33,SE,137,2.0,2.0,81,0.00,,,0.05,,2013-01-27 08:52:00,
2013-01-27 04:03:00,21.0,16.0,30.33,SE,137,2.0,2.0,81,0.00,,,0.05,,2013-01-27 09:03:00,
2013-01-27 04:11:00,21.0,16.0,30.33,SE,137,2.0,2.0,81,0.00,,,0.05,,2013-01-27 09:11:00,
2013-01-27 04:21:00,20.0,16.0,30.32,SE,130,3.0,3.0,83,0.00,,,0.05,,2013-01-27 09:21:00,
2013-01-27 04:32:00,20.0,16.0,30.32,SE,130,3.0,3.0,83,0.00,,,0.05,,2013-01-27 09:32:00,
2013-01-27 04:42:00,20.0,16.0,30.32,SE,130,3.0,3.0,83,0.00,,,0.05,,2013-01-27 09:42:00,
2013-01-27 04:52:00,20.0,16.0,30.32,SE,125,3.0,3.0,83,0.00,,,0.05,,2013-01-27 09:52:00,
2013-01-27 05:01:00,20.0,16.0,30.32,SE,125,3.0,3.0,83,0.00,,,0.05,,2013-01-27 10:01:00,
2013-01-27 05:11:00,20.0,16.0,30.32,SE,125,3.0,3.0,83,0.00,,,0.05,,2013-01-27 10:11:00,
2013-01-27 05:21:00,19.0,15.0,30.32,SE,124,3.0,4.0,83,0.00,,,0.05,,2013-01-27 10:21:00,
2013-01-27 05:32:00,19.0,15.0,30.32,SE,124,3.0,4.0,83,0.00,,,0.05,,2013-01-27 10:32:00,
2013-01-27 05:42:00,19.0,15.0,30.32,SE,124,3.0,4.0,83,0.00,,,0.05,,2013-01-27 10:42:00,
2013-01-27 05:52:00,20.0,16.0,30.31,SE,132,3.0,3.0,84,0.00,,,0.05,,2013-01-27 10:52:00,
2013-01-27 06:01:00,20.0,16.0,30.31,SE,132,3.0,3.0,84,0.00,,,0.05,,2013-01-27 11:01:00,
2013-01-27 06:11:00,20.0,16.0,30.31,SE,132,3.0,3.0,84,0.00,,,0.05,,2013-01-27 11:11:00,
2013-01-27 06:22:00,22.0,18.0,30.29,West,261,5.0,7.0,83,0.00,,,0.05,,2013-01-27 11:22:00,
2013-01-27 06:32:00,22.0,18.0,30.29,West,261,5.0,7.0,83,0.00,,,0.05,,2013-01-27 11:32:00,
2013-01-27 06:42:00,22.0,18.0,30.29,West,261,5.0,7.0,83,0.00,,,0.05,,2013-01-27 11:42:00,
2013-01-27 06:52:00,22.0,17.0,30.29,SSW,212,6.0,9.0,82,0.00,,,0.05,,2013-01-27 11:52:00,
2013-01-27 07:02:00,22.0,17.0,30.29,SSW,212,6.0,9.0,82,0.00,,,0.05,,2013-01-27 12:02:00,
2013-01-27 07:12:00,22.0,17.0,30.29,SSW,212,6.0,9.0,82,0.00,,,0.05,,2013-01-27 12:12:00,
2013-01-27 07:22:00,23.0,18.0,30.28,SW,231,6.0,6.0,82,0.00,,,0.05,,2013-01-27 12:22:00,
2013-01-27 07:32:00,23.0,18.0,30.28,SW,231,6.0,6.0,82,0.00,,,0.05,,2013-01-27 12:32:00,
2013-01-27 07:42:00,23.0,18.0,30.28,SW,231,6.0,6.0,82,0.00,,,0.05,,2013-01-27 12:42:00,
2013-01-27 07:52:00,23.0,19.0,30.28,SW,235,4.0,7.0,83,0.00,,,0.05,,2013-01-27 12:52:00,
2013-01-27 08:02:00,23.0,19.0,30.28,SW,235,4.0,7.0,83,0.00,,,0.05,,2013-01-27 13:02:00,
2013-01-27 08:12:00,23.0,19.0,30.28,SW,235,4.0,7.0,83,0.00,,,0.05,,2013-01-27 13:12:00,
2013-01-27 08:22:00,24.0,20.0,30.28,South,185,5.0,5.0,84,0.00,,,0.05,,2013-01-27 13:22:00,
2013-01-27 08:32:00,24.0,20.0,30.28,South,185,5.0,5.0,84,0.00,,,0.05,,2013-01-27 13:32:00,
2013-01-27 08:42:00,24.0,20.0,30.28,South,185,5.0,5.0,84,0.00,,,0.05,,2013-01-27 13:42:00,
2013-01-27 08:52:00,24.0,21.0,30.27,WSW,244,1.0,5.0,88,0.00,,,0.05,,2013-01-27 13:52:00,
2013-01-27 09:02:00,24.0,21.0,30.27,WSW,244,1.0,5.0,88,0.00,,,0.05,,2013-01-27 14:02:00,
2013-01-27 09:12:00,24.0,21.0,30.27,WSW,244,1.0,5.0,88,0.00,,,0.05,,2013-01-27 14:12:00,
2013-01-27 09:22:00,25.0,21.0,30.27,SW,225,4.0,4.0,85,0.00,,,0.05,,2013-01-27 14:22:00,
2013-01-27 09:33:00,25.0,21.0,30.27,SW,225,4.0,4.0,85,0.00,,,0.05,,2013-01-27 14:33:00,
2013-01-27 09:43:00,25.0,21.0,30.27,SW,225,4.0,4.0,85,0.00,,,0.05,,2013-01-27 14:43:00,
2013-01-27 09:53:00,25.0,21.0,30.27,SSW,207,4.0,4.0,83,0.00,,,0.05,,2013-01-27 14:53:00,
2013-01-27 10:02:00,25.0,21.0,30.27,SSW,207,4.0,4.0,83,0.00,,,0.05,,2013-01-27 15:02:00,
2013-01-27 10:12:00,25.0,21.0,30.27,SSW,207,4.0,4.0,83,0.00,,,0.05,,2013-01-27 15:12:00,
2013-01-27 10:22:00,26.0,21.0,30.27,SW,233,4.0,6.0,82,0.00,,,0.05,,2013-01-27 15:22:00,
2013-01-27 10:32:00,26.0,21.0,30.27,SW,233,4.0,6.0,82,0.00,,,0.05,,2013-01-27 15:32:00,
2013-01-27 10:42:00,26.0,21.0,30.27,SW,233,4.0,6.0,82,0.00,,,0.05,,2013-01-27 15:42:00,
2013-01-27 10:53:00,26.0,22.0,30.27,SW,223,8.0,8.0,83,0.00,,,0.05,,2013-01-27 15:53:00,
2013-01-27 11:02:00,26.0,22.0,30.27,SW,223,8.0,8.0,83,0.00,,,0.05,,2013-01-27 16:02:00,
2013-01-27 11:12:00,26.0,22.0,30.27,SW,223,8.0,8.0,83,0.00,,,0.05,,2013-01-27 16:12:00,
2013-01-27 11:22:00,27.0,22.0,30.28,SSW,194,10.0,10.0,82,0.00,,,0.05,,2013-01-27 16:22:00,
2013-01-27 11:32:00,27.0,22.0,30.28,SSW,194,10.0,10.0,82,0.00,,,0.05,,2013-01-27 16:32:00,
2013-01-27 11:42:00,27.0,22.0,30.28,SSW,194,10.0,10.0,82,0.00,,,0.05,,2013-01-27 16:42:00,
2013-01-27 11:53:00,27.0,22.0,30.27,SW,234,6.0,6.0,81,0.00,,,0.05,,2013-01-27 16:53:00,
2013-01-27 12:02:00,27.0,22.0,30.27,SW,234,6.0,6.0,81,0.00,,,0.05,,2013-01-27 17:02:00,
2013-01-27 12:12:00,27.0,22.0,30.27,SW,234,6.0,6.0,81,0.00,,,0.05,,2013-01-27 17:12:00,
2013-01-27 12:22:00,28.0,23.0,30.27,SW,221,10.0,10.0,81,0.00,,,0.04,,2013-01-27 17:22:00,
2013-01-27 12:32:00,28.0,23.0,30.27,SW,221,10.0,10.0,81,0.00,,,0.04,,2013-01-27 17:32:00,
2013-01-27 12:42:00,28.0,23.0,30.27,SW,221,10.0,10.0,81,0.00,,,0.04,,2013-01-27 17:42:00,
2013-01-27 12:53:00,29.0,23.0,30.26,SW,236,4.0,5.0,79,0.00,,,0.04,,2013-01-27 17:53:00,
2013-01-27 13:02:00,29.0,23.0,30.26,SW,236,4.0,5.0,79,0.00,,,0.04,,2013-01-27 18:02:00,
2013-01-27 13:12:00,29.0,23.0,30.26,SW,236,4.0,5.0,79,0.00,,,0.04,,2013-01-27 18:12:00,
2013-01-27 13:23:00,29.0,23.0,30.25,SW,234,6.0,7.0,77,0.00,,,0.03,,2013-01-27 18:23:00,
2013-01-27 13:32:00,29.0,23.0,30.25,SW,234,6.0,7.0,77,0.00,,,0.03,,2013-01-27 18:32:00,
2013-01-27 13:42:00,29.0,23.0,30.25,SW,234,6.0,7.0,77,0.00,,,0.03,,2013-01-27 18:42:00,
2013-01-27 13:53:00,30.0,23.0,30.24,SW,216,4.0,8.0,76,0.00,,,0.02,,2013-01-27 18:53:00,
2013-01-27 14:02:00,30.0,23.0,30.24,SW,216,4.0,8.0,76,0.00,,,0.02,,2013-01-27 19:02:00,
2013-01-27 14:12:00,30.0,23.0,30.24,SW,216,4.0,8.0,76,0.00,,,0.02,,2013-01-27 19:12:00,
2013-01-27 14:22:00,30.0,22.0,30.22,SSE,161,6.0,9.0,72,0.00,,,0.01,,2013-01-27 19:22:00,
2013-01-27 14:32:00,30.0,22.0,30.22,SSE,161,6.0,9.0,72,0.00,,,0.01,,2013-01-27 19:32:00,
2013-01-27 14:42:00,30.0,22.0,30.22,SSE,161,6.0,9.0,72,0.00,,,0.01,,2013-01-27 19:42:00,
2013-01-27 14:52:00,30.0,22.0,30.20,SW,222,9.0,9.0,71,0.00,,,0.01,,2013-01-27 19:52:00,
2013-01-27 15:02:00,30.0,22.0,30.20,SW,222,9.0,9.0,71,0.00,,,0.01,,2013-01-27 20:02:00,
2013-01-27 15:12:00,30.0,22.0,30.20,SW,222,9.0,9.0,71,0.00,,,0.01,,2013-01-27 20:12:00,
2013-01-27 15:22:00,30.0,22.0,30.18,SW,215,5.0,5.0,71,0.00,,,0.00,,2013-01-27 20:22:00,
2013-01-27 15:33:00,30.0,22.0,30.18,SW,215,5.0,5.0,71,0.00,,,0.00,,2013-01-27 20:33:00,
2013-01-27 15:42:00,30.0,22.0,30.18,SW,215,5.0,5.0,71,0.00,,,0.00,,2013-01-27 20:42:00,
2013-01-27 15:52:00,30.0,22.0,30.18,SSW,207,7.0,9.0,72,0.00,,,0.00,,2013-01-27 20:52:00,
2013-01-27 16:02:00,30.0,22.0,30.18,SSW,207,7.0,9.0,72,0.00,,,0.00,,2013-01-27 21:02:00,
2013-01-27 16:12:00,30.0,22.0,30.18,SSW,207,7.0,9.0,72,0.00,,,0.00,,2013-01-27 21:12:00,
2013-01-27 16:22:00,30.0,22.0,30.17,SSW,209,2.0,5.0,71,0.00,,,0.00,,2013-01-27 21:22:00,
2013-01-27 16:33:00,30.0,22.0,30.17,SSW,209,2.0,5.0,71,0.00,,,0.00,,2013-01-27 21:33:00,
2013-01-27 16:43:00,30.0,22.0,30.17,SSW,209,2.0,5.0,71,0.00,,,0.00,,2013-01-27 21:43:00,
2013-01-27 16:52:00,30.0,21.0,30.16,SW,226,3.0,6.0,70,0.00,,,0.00,,2013-01-27 21:52:00,
2013-01-27 17:02:00,30.0,21.0,30.16,SW,226,3.0,6.0,70,0.00,,,0.00,,2013-01-27 22:02:00,
2013-01-27 17:12:00,30.0,21.0,30.16,SW,226,3.0,6.0,70,0.00,,,0.00,,2013-01-27 22:12:00,
2013-01-27 17:22:00,30.0,22.0,30.17,South,173,1.0,2.0,72,0.00,,,0.00,,2013-01-27 22:22:00,
2013-01-27 17:32:00,30.0,22.0,30.17,South,173,1.0,2.0,72,0.00,,,0.00,,2013-01-27 22:32:00,
2013-01-27 17:42:00,30.0,22.0,30.17,South,173,1.0,2.0,72,0.00,,,0.00,,2013-01-27 22:42:00,
2013-01-27 17:52:00,29.0,21.0,30.17,SSE,154,1.0,1.0,73,0.00,,,0.00,,2013-01-27 22:52:00,
2013-01-27 18:02:00,29.0,21.0,30.17,SSE,154,1.0,1.0,73,0.00,,,0.00,,2013-01-27 23:02:00,
2013-01-27 18:12:00,29.0,21.0,30.17,SSE,154,1.0,1.0,73,0.00,,,0.00,,2013-01-27 23:12:00,
2013-01-27 18:22:00,29.0,22.0,30.16,SE,146,1.0,2.0,74,0.00,,,0.00,,2013-01-27 23:22:00,
2013-01-27 18:32:00,29.0,22.0,30.16,SE,146,1.0,2.0,74,0.00,,,0.00,,2013-01-27 23:32:00,
2013-01-27 18:42:00,29.0,22.0,30.16,SE,146,1.0,2.0,74,0.00,,,0.00,,2013-01-27 23:42:00,
2013-01-27 18:53:00,29.0,22.0,30.16,SSE,163,2.0,2.0,74,0.00,,,0.00,,2013-01-27 23:53:00,
2013-01-27 19:02:00,29.0,22.0,30.16,SSE,163,2.0,2.0,74,0.00,,,0.00,,2013-01-28 00:02:00,
2013-01-27 19:12:00,29.0,22.0,30.16,SSE,163,2.0,2.0,74,0.00,,,0.00,,2013-01-28 00:12:00,
2013-01-27 19:22:00,29.0,23.0,30.16,SE,126,3.0,4.0,77,0.00,,,0.00,,2013-01-28 00:22:00,
2013-01-27 19:32:00,29.0,23.0,30.16,SE,126,3.0,4.0,77,0.00,,,0.00,,2013-01-28 00:32:00,
2013-01-27 19:42:00,29.0,23.0,30.16,SE,126,3.0,4.0,77,0.00,,,0.00,,2013-01-28 00:42:00,
2013-01-27 19:52:00,29.0,23.0,30.16,ESE,121,2.0,3.0,79,0.00,,,0.00,,2013-01-28 00:52:00,
2013-01-27 20:02:00,29.0,23.0,30.16,ESE,121,2.0,3.0,79,0.00,,,0.00,,2013-01-28 01:02:00,
2013-01-27 20:12:00,29.0,23.0,30.16,ESE,121,2.0,3.0,79,0.00,,,0.00,,2013-01-28 01:12:00,
2013-01-27 20:22:00,28.0,24.0,30.15,SE,132,2.0,3.0,85,0.00,,,0.00,,2013-01-28 01:22:00,
2013-01-27 20:33:00,28.0,24.0,30.15,SE,132,2.0,3.0,85,0.00,,,0.00,,2013-01-28 01:33:00,
2013-01-27 20:42:00,28.0,24.0,30.15,SE,132,2.0,3.0,85,0.00,,,0.00,,2013-01-28 01:42:00,
2013-01-27 20:52:00,27.0,24.0,30.14,SE,130,4.0,5.0,90,0.00,,,0.00,,2013-01-28 01:52:00,
2013-01-27 21:02:00,27.0,24.0,30.14,SE,130,4.0,5.0,90,0.00,,,0.00,,2013-01-28 02:02:00,
2013-01-27 21:11:00,27.0,24.0,30.14,SE,130,4.0,5.0,90,0.00,,,0.00,,2013-01-28 02:11:00,
2013-01-27 21:22:00,27.0,25.0,30.12,ESE,117,4.0,5.0,91,0.00,,,0.00,,2013-01-28 02:22:00,
2013-01-27 21:32:00,27.0,25.0,30.12,ESE,117,4.0,5.0,91,0.00,,,0.00,,2013-01-28 02:32:00,
2013-01-27 21:42:00,27.0,25.0,30.12,ESE,117,4.0,5.0,91,0.00,,,0.00,,2013-01-28 02:42:00,
2013-01-27 21:53:00,27.0,25.0,30.10,SE,132,7.0,8.0,91,0.00,,,0.00,,2013-01-28 02:53:00,
2013-01-27 22:02:00,27.0,25.0,30.10,SE,132,7.0,8.0,91,0.00,,,0.00,,2013-01-28 03:02:00,
2013-01-27 22:12:00,27.0,25.0,30.10,SE,132,7.0,8.0,91,0.00,,,0.00,,2013-01-28 03:12:00,
2013-01-27 22:22:00,27.0,25.0,30.09,ESE,119,8.0,11.0,92,0.00,,,0.00,,2013-01-28 03:22:00,
2013-01-27 22:32:00,27.0,25.0,30.09,ESE,119,8.0,11.0,92,0.00,,,0.00,,2013-01-28 03:32:00,
2013-01-27 22:42:00,27.0,25.0,30.09,ESE,119,8.0,11.0,92,0.00,,,0.00,,2013-01-28 03:42:00,
2013-01-27 22:53:00,27.0,25.0,30.07,SE,132,6.0,8.0,92,0.00,,,0.00,,2013-01-28 03:53:00,
2013-01-27 23:02:00,27.0,25.0,30.07,SE,132,6.0,8.0,92,0.00,,,0.00,,2013-01-28 04:02:00,
2013-01-27 23:12:00,27.0,25.0,30.07,SE,132,6.0,8.0,92,0.00,,,0.00,,2013-01-28 04:12:00,
2013-01-27 23:22:00,27.0,25.0,30.05,SE,125,8.0,8.0,91,0.00,,,0.00,,2013-01-28 04:22:00,
2013-01-27 23:32:00,27.0,25.0,30.05,SE,125,8.0,8.0,91,0.00,,,0.00,,2013-01-28 04:32:00,
2013-01-27 23:42:00,27.0,25.0,30.05,SE,125,8.0,8.0,91,0.00,,,0.00,,2013-01-28 04:42:00,
2013-01-27 23:52:00,27.0,25.0,30.03,SE,137,5.0,9.0,91,0.00,,,0.00,,2013-01-28 04:52:00,